createdAt,value
2022-11-28T00:01:09.360Z,1.97
2022-11-28T00:05:12.175Z,2.06
2022-11-28T00:09:15.185Z,2.09
2022-11-28T00:13:16.892Z,1.97
2022-11-28T00:17:18.817Z,2.06
2022-11-28T00:21:21.093Z,2.06
2022-11-28T00:25:22.895Z,2.11
2022-11-28T00:29:24.856Z,2.14
2022-11-28T00:33:26.851Z,2.13
2022-11-28T00:37:28.493Z,2.05
2022-11-28T00:41:31.234Z,2.02
2022-11-28T00:45:32.993Z,1.97
2022-11-28T00:49:35.040Z,1.96
2022-11-28T00:53:37.461Z,1.97
2022-11-28T00:57:39.340Z,1.93
2022-11-28T01:01:43.916Z,1.99
2022-11-28T01:05:45.957Z,2.06
2022-11-28T01:09:47.707Z,2.02
2022-11-28T01:13:50.339Z,2.00
2022-11-28T01:17:51.998Z,2.02
2022-11-28T01:21:53.952Z,1.87
2022-11-28T01:25:55.854Z,1.95
2022-11-28T01:29:57.731Z,1.97
2022-11-28T01:33:59.633Z,1.91
2022-11-28T01:38:01.693Z,1.97
2022-11-28T01:42:03.831Z,1.91
2022-11-28T01:46:05.919Z,1.91
2022-11-28T01:50:08.394Z,1.88
2022-11-28T01:54:11.467Z,1.93
2022-11-28T01:58:13.853Z,1.88
2022-11-28T02:02:40.068Z,1.92
2022-11-28T02:06:42.659Z,1.87
2022-11-28T02:11:18.137Z,1.95
2022-11-28T02:15:42.706Z,1.90
2022-11-28T02:20:24.314Z,1.91
2022-11-28T02:24:54.874Z,2.07
2022-11-28T02:29:31.707Z,1.95
2022-11-28T02:33:38.338Z,1.93
2022-11-28T02:38:04.617Z,1.95
2022-11-28T02:42:23.004Z,2.02
2022-11-28T02:46:57.742Z,1.95
2022-11-28T02:51:11.619Z,1.97
2022-11-28T02:55:14.603Z,1.98
2022-11-28T02:59:38.228Z,1.89
2022-11-28T03:03:52.908Z,1.90
2022-11-28T03:08:23.391Z,2.00
2022-11-28T03:12:32.538Z,1.89
2022-11-28T03:16:48.899Z,1.85
2022-11-28T03:21:23.512Z,1.86
2022-11-28T03:25:38.235Z,1.92
2022-11-28T03:29:46.428Z,1.87
2022-11-28T03:33:54.555Z,1.90
2022-11-28T03:38:02.844Z,1.91
2022-11-28T03:42:09.052Z,1.89
2022-11-28T03:46:15.667Z,1.99
2022-11-28T03:50:23.354Z,1.95
2022-11-28T03:54:34.053Z,1.88
2022-11-28T03:58:53.613Z,1.91
2022-11-28T04:03:15.538Z,1.92
2022-11-28T04:07:43.408Z,1.89
2022-11-28T04:11:51.767Z,1.84
2022-11-28T04:16:12.949Z,1.84
2022-11-28T04:20:24.589Z,1.72
2022-11-28T04:24:36.458Z,1.73
2022-11-28T04:28:40.061Z,1.72
2022-11-28T04:32:49.431Z,1.64
2022-11-28T04:36:54.013Z,1.67
2022-11-28T04:41:03.165Z,1.73
2022-11-28T04:45:13.813Z,1.73
2022-11-28T04:49:15.976Z,1.79
2022-11-28T04:53:30.521Z,1.75
2022-11-28T04:57:37.391Z,1.72
2022-11-28T05:01:41.917Z,1.73
2022-11-28T05:05:47.292Z,1.66
2022-11-28T05:09:48.922Z,1.74
2022-11-28T05:13:51.129Z,1.69
2022-11-28T05:17:52.922Z,1.54
2022-11-28T05:21:54.801Z,1.55
2022-11-28T05:25:56.448Z,1.54
2022-11-28T05:29:58.398Z,1.46
2022-11-28T05:33:59.999Z,1.60
2022-11-28T05:38:02.038Z,1.48
2022-11-28T05:42:03.985Z,1.53
2022-11-28T05:46:06.837Z,1.46
2022-11-28T05:50:08.806Z,1.51
2022-11-28T05:54:10.858Z,1.56
2022-11-28T05:58:12.966Z,1.53
2022-11-28T06:02:14.987Z,1.39
2022-11-28T06:06:21.913Z,1.63
2022-11-28T06:10:23.732Z,1.57
2022-11-28T06:14:25.591Z,1.63
2022-11-28T06:18:27.721Z,1.58
2022-11-28T06:22:29.361Z,1.66
2022-11-28T06:26:31.479Z,1.70
2022-11-28T06:30:33.288Z,1.71
2022-11-28T06:34:35.240Z,1.73
2022-11-28T06:38:37.476Z,1.76
2022-11-28T06:42:39.219Z,1.69
2022-11-28T06:46:42.112Z,1.70
2022-11-28T06:50:43.918Z,1.54
2022-11-28T06:54:45.866Z,1.71
2022-11-28T06:58:53.271Z,1.71
2022-11-28T07:02:55.152Z,1.53
2022-11-28T07:06:57.036Z,1.60
2022-11-28T07:11:06.477Z,1.64
2022-11-28T07:15:08.393Z,1.67
2022-11-28T07:19:11.265Z,1.72
2022-11-28T07:23:13.001Z,1.82
2022-11-28T07:27:14.882Z,1.82
2022-11-28T07:31:21.965Z,1.97
2022-11-28T07:35:24.422Z,2.01
2022-11-28T07:39:26.577Z,2.06
2022-11-28T07:43:28.607Z,2.16
2022-11-28T07:47:30.677Z,2.22
2022-11-28T07:51:34.015Z,2.34
2022-11-28T07:55:36.385Z,2.34
2022-11-28T07:59:38.278Z,2.40
2022-11-28T08:03:40.641Z,2.42
2022-11-28T08:07:42.701Z,2.37
2022-11-28T08:11:44.476Z,2.41
2022-11-28T08:15:46.398Z,2.34
2022-11-28T08:19:48.206Z,2.39
2022-11-28T08:23:51.858Z,2.39
2022-11-28T08:27:53.571Z,2.44
2022-11-28T08:31:56.649Z,2.56
2022-11-28T08:35:58.171Z,2.59
2022-11-28T08:40:00.023Z,2.49
2022-11-28T08:44:02.082Z,2.60
2022-11-28T08:48:04.571Z,2.59
2022-11-28T08:52:06.904Z,2.64
2022-11-28T08:56:09.619Z,2.65
2022-11-28T09:00:11.929Z,2.71
2022-11-28T09:04:13.924Z,2.83
2022-11-28T09:08:17.601Z,2.83
2022-11-28T09:12:19.438Z,2.98
2022-11-28T09:16:21.442Z,3.16
2022-11-28T09:20:23.285Z,3.08
2022-11-28T09:24:25.279Z,3.15
2022-11-28T09:28:28.803Z,3.13
2022-11-28T09:32:30.669Z,3.08
2022-11-28T09:36:32.726Z,3.14
2022-11-28T09:40:44.635Z,3.37
2022-11-28T09:44:54.744Z,3.40
2022-11-28T09:49:00.353Z,3.30
2022-11-28T09:53:17.781Z,3.23
2022-11-28T09:57:34.199Z,3.58
2022-11-28T10:02:01.425Z,3.63
2022-11-28T10:06:23.129Z,3.65
2022-11-28T10:11:10.802Z,3.51
2022-11-28T10:15:20.258Z,3.37
2022-11-28T10:24:01.308Z,3.57
2022-11-28T10:28:10.259Z,3.58
2022-11-28T10:32:17.713Z,3.56
2022-11-28T10:36:26.464Z,3.59
2022-11-28T10:40:46.997Z,3.47
2022-11-28T10:45:30.182Z,3.51
2022-11-28T10:49:49.139Z,3.39
2022-11-28T10:54:28.081Z,3.45
2022-11-28T10:58:56.317Z,3.57
2022-11-28T11:03:02.307Z,3.53
2022-11-28T11:07:29.875Z,3.56
2022-11-28T11:11:41.829Z,3.56
2022-11-28T11:15:45.932Z,3.45
2022-11-28T11:19:47.687Z,3.41
2022-11-28T11:24:10.139Z,3.50
2022-11-28T11:28:27.218Z,3.47
2022-11-28T11:32:30.727Z,3.50
2022-11-28T11:36:35.964Z,3.56
2022-11-28T11:40:38.204Z,3.40
2022-11-28T11:44:39.929Z,3.54
2022-11-28T11:48:43.284Z,3.45
2022-11-28T11:53:00.798Z,3.54
2022-11-28T11:57:25.374Z,3.49
2022-11-28T12:01:26.494Z,3.48
2022-11-28T12:05:52.303Z,3.45
2022-11-28T12:10:01.738Z,3.41
2022-11-28T12:14:28.060Z,3.45
2022-11-28T12:18:43.540Z,3.42
2022-11-28T12:23:27.280Z,3.48
2022-11-28T12:28:06.909Z,3.53
2022-11-28T12:32:31.517Z,3.53
2022-11-28T12:36:40.665Z,3.54
2022-11-28T12:41:14.054Z,3.47
2022-11-28T12:45:20.328Z,3.47
2022-11-28T12:49:44.937Z,3.54
2022-11-28T12:54:18.786Z,3.44
2022-11-28T12:58:34.233Z,3.48
2022-11-28T13:03:05.233Z,3.45
2022-11-28T13:07:32.328Z,3.26
2022-11-28T13:12:07.554Z,3.31
2022-11-28T13:16:35.145Z,3.34
2022-11-28T13:20:49.520Z,3.29
2022-11-28T13:25:20.726Z,3.32
2022-11-28T13:29:36.001Z,3.30
2022-11-28T13:33:53.569Z,3.26
2022-11-28T13:38:36.569Z,3.08
2022-11-28T13:43:04.441Z,2.95
2022-11-28T13:47:36.735Z,3.06
2022-11-28T13:51:38.881Z,3.09
2022-11-28T13:55:46.732Z,3.11
2022-11-28T13:59:57.166Z,3.17
2022-11-28T14:03:58.947Z,3.13
2022-11-28T14:08:03.020Z,3.10
2022-11-28T14:12:21.053Z,3.10
2022-11-28T14:16:52.061Z,3.00
2022-11-28T14:20:57.439Z,3.04
2022-11-28T14:25:11.265Z,2.98
2022-11-28T14:29:26.744Z,2.97
2022-11-28T14:33:42.425Z,2.92
2022-11-28T14:37:53.015Z,2.83
2022-11-28T14:42:04.632Z,2.73
2022-11-28T14:46:15.389Z,2.80
2022-11-28T14:50:18.208Z,2.83
2022-11-28T14:54:35.507Z,2.77
2022-11-28T14:58:39.866Z,2.67
2022-11-28T15:03:09.339Z,2.66
2022-11-28T15:07:29.491Z,2.61
2022-11-28T15:12:00.535Z,2.63
2022-11-28T15:16:11.470Z,2.64
2022-11-28T15:20:21.736Z,2.51
2022-11-28T15:24:25.215Z,2.45
2022-11-28T15:28:29.164Z,2.44
2022-11-28T15:32:31.840Z,2.48
2022-11-28T15:36:39.224Z,2.49
2022-11-28T15:40:50.651Z,2.48
2022-11-28T15:45:06.099Z,2.53
2022-11-28T15:49:34.379Z,2.44
2022-11-28T15:53:42.314Z,2.45
2022-11-28T15:57:44.286Z,2.45
2022-11-28T16:01:46.903Z,2.43
2022-11-28T16:05:51.705Z,2.45
2022-11-28T16:09:58.450Z,2.45
2022-11-28T16:14:07.488Z,2.40
2022-11-28T16:18:15.224Z,2.44
2022-11-28T16:22:23.083Z,2.41
2022-11-28T16:26:36.545Z,2.32
2022-11-28T16:30:42.823Z,2.29
2022-11-28T16:34:50.713Z,2.33
2022-11-28T16:39:03.202Z,2.34
2022-11-28T16:43:06.195Z,2.38
2022-11-28T16:47:25.470Z,2.35
2022-11-28T16:51:34.227Z,2.34
2022-11-28T16:55:40.750Z,2.33
2022-11-28T16:59:44.439Z,2.24
2022-11-28T17:03:52.058Z,2.19
2022-11-28T17:07:54.364Z,2.10
2022-11-28T17:12:02.009Z,2.12
2022-11-28T17:16:04.024Z,2.17
2022-11-28T17:20:06.544Z,2.06
2022-11-28T17:24:21.045Z,2.18
2022-11-28T17:28:27.788Z,2.22
2022-11-28T17:32:31.113Z,2.08
2022-11-28T17:36:32.901Z,2.04
2022-11-28T17:40:36.455Z,2.04
2022-11-28T17:44:39.090Z,2.02
2022-11-28T17:48:41.123Z,2.03
2022-11-28T17:52:43.289Z,2.02
2022-11-28T17:56:46.371Z,2.02
2022-11-28T18:00:48.548Z,2.02
2022-11-28T18:04:50.448Z,2.03
2022-11-28T18:08:52.590Z,2.00
2022-11-28T18:12:55.450Z,1.83
2022-11-28T18:17:00.838Z,1.84
2022-11-28T18:21:03.316Z,1.70
2022-11-28T18:25:08.016Z,1.69
2022-11-28T18:29:10.078Z,1.63
2022-11-28T18:33:14.265Z,1.56
2022-11-28T18:37:15.983Z,1.50
2022-11-28T18:41:18.135Z,1.33
2022-11-28T18:45:20.997Z,1.42
2022-11-28T18:49:23.212Z,1.38
2022-11-28T18:53:24.941Z,1.33
2022-11-28T18:57:31.162Z,1.48
2022-11-28T19:01:34.641Z,1.30
2022-11-28T19:05:41.951Z,1.32
2022-11-28T19:09:45.425Z,1.50
2022-11-28T19:13:48.793Z,1.36
2022-11-28T19:17:50.649Z,1.33
2022-11-28T19:21:52.707Z,1.52
2022-11-28T19:25:54.765Z,1.49
2022-11-28T19:29:56.858Z,1.38
2022-11-28T19:34:02.007Z,1.40
2022-11-28T19:38:05.866Z,1.37
2022-11-28T19:42:08.119Z,1.36
2022-11-28T19:46:11.206Z,1.30
2022-11-28T19:50:13.623Z,1.33
2022-11-28T19:54:19.534Z,1.19
2022-11-28T19:58:22.000Z,1.14
2022-11-28T20:02:23.834Z,1.12
2022-11-28T20:06:28.877Z,1.24
2022-11-28T20:10:30.621Z,1.22
2022-11-28T20:14:32.660Z,1.27
2022-11-28T20:18:36.960Z,1.11
2022-11-28T20:22:39.140Z,1.08
2022-11-28T20:26:43.531Z,1.08
2022-11-28T20:30:45.417Z,1.14
2022-11-28T20:34:47.466Z,1.07
2022-11-28T20:38:50.099Z,1.19
2022-11-28T20:42:51.847Z,1.05
2022-11-28T20:46:53.924Z,1.05
2022-11-28T20:50:55.712Z,1.03
2022-11-28T20:54:57.635Z,1.06
2022-11-28T20:59:01.811Z,1.18
2022-11-28T21:03:03.644Z,1.10
2022-11-28T21:07:05.603Z,1.17
2022-11-28T21:11:10.991Z,1.16
2022-11-28T21:15:12.891Z,1.00
2022-11-28T21:19:14.761Z,1.07
2022-11-28T21:23:16.709Z,1.06
2022-11-28T21:27:18.669Z,1.13
2022-11-28T21:31:26.688Z,1.01
2022-11-28T21:35:28.376Z,1.09
2022-11-28T21:39:30.365Z,1.02
2022-11-28T21:43:32.299Z,0.97
2022-11-28T21:47:34.356Z,1.02
2022-11-28T21:51:36.056Z,1.07
2022-11-28T21:55:37.993Z,1.12
2022-11-28T21:59:39.694Z,1.00
2022-11-28T22:03:43.676Z,1.01
2022-11-28T22:07:45.572Z,0.89
2022-11-28T22:11:47.564Z,0.94
2022-11-28T22:15:50.653Z,0.87
2022-11-28T22:19:52.389Z,0.75
2022-11-28T22:23:54.593Z,0.73
2022-11-28T22:27:56.662Z,0.65
2022-11-28T22:31:58.588Z,0.71
2022-11-28T22:36:20.985Z,0.79
2022-11-28T22:40:22.696Z,0.75
2022-11-28T22:44:24.680Z,0.67
2022-11-28T22:48:29.936Z,0.73
2022-11-28T22:52:32.334Z,0.73
2022-11-28T22:56:34.668Z,0.65
2022-11-28T23:00:37.170Z,0.68
2022-11-28T23:04:38.842Z,0.65
2022-11-28T23:08:41.436Z,0.75
2022-11-28T23:12:43.124Z,0.85
2022-11-28T23:16:46.052Z,0.76
2022-11-28T23:20:47.898Z,0.76
2022-11-28T23:24:49.891Z,0.76
2022-11-28T23:28:52.549Z,0.89
2022-11-28T23:32:54.222Z,0.91
2022-11-28T23:36:56.102Z,0.86
2022-11-28T23:40:57.870Z,0.81
2022-11-28T23:44:59.700Z,0.76
2022-11-28T23:49:01.650Z,0.78
2022-11-28T23:53:03.336Z,0.74
2022-11-28T23:57:05.256Z,0.72
